createdAt,value
2023-04-25T00:01:35.413Z,39.74
2023-04-25T00:04:06.331Z,39.12
2023-04-25T00:06:38.341Z,38.42
2023-04-25T00:09:12.830Z,38.19
2023-04-25T00:12:00.792Z,38.23
2023-04-25T00:14:35.978Z,38.04
2023-04-25T00:17:06.439Z,38.02
2023-04-25T00:19:37.080Z,37.90
2023-04-25T00:22:08.219Z,37.83
2023-04-25T00:25:02.723Z,37.89
2023-04-25T00:27:33.986Z,37.99
2023-04-25T00:30:10.417Z,37.93
2023-04-25T00:32:47.455Z,39.25
2023-04-25T00:35:19.952Z,38.89
2023-04-25T00:37:53.206Z,38.04
2023-04-25T00:40:23.640Z,37.88
2023-04-25T00:42:54.610Z,37.97
2023-04-25T00:45:27.939Z,37.74
2023-04-25T00:47:58.206Z,37.71
2023-04-25T00:50:28.894Z,38.03
2023-04-25T00:53:04.844Z,38.10
2023-04-25T00:55:36.238Z,38.01
2023-04-25T00:58:07.161Z,37.33
2023-04-25T01:00:40.512Z,37.44
2023-04-25T01:03:10.234Z,37.87
2023-04-25T01:05:40.106Z,37.38
2023-04-25T01:08:10.448Z,37.23
2023-04-25T01:10:39.305Z,37.76
2023-04-25T01:13:11.938Z,38.03
2023-04-25T01:15:44.536Z,37.41
2023-04-25T01:18:19.913Z,37.26
2023-04-25T01:20:55.975Z,37.28
2023-04-25T01:23:36.785Z,37.34
2023-04-25T01:26:10.408Z,37.28
2023-04-25T01:28:44.991Z,37.20
2023-04-25T01:35:44.342Z,38.76
2023-04-25T01:38:48.398Z,38.00
2023-04-25T01:41:25.341Z,37.83
2023-04-25T01:44:05.739Z,37.27
2023-04-25T01:46:56.019Z,37.01
2023-04-25T01:49:45.166Z,36.77
2023-04-25T01:52:15.448Z,38.49
2023-04-25T01:54:55.589Z,36.98
2023-04-25T01:57:26.182Z,36.71
2023-04-25T02:00:04.906Z,36.62
2023-04-25T02:02:48.533Z,37.16
2023-04-25T02:05:41.969Z,36.80
2023-04-25T02:08:22.434Z,37.23
2023-04-25T02:10:52.368Z,37.52
2023-04-25T02:13:23.193Z,37.77
2023-04-25T02:16:07.883Z,37.30
2023-04-25T02:18:42.071Z,37.00
2023-04-25T02:21:11.407Z,36.79
2023-04-25T02:23:42.968Z,36.69
2023-04-25T02:26:16.907Z,36.63
2023-04-25T02:28:48.263Z,36.33
2023-04-25T02:31:34.560Z,36.54
2023-04-25T02:34:08.867Z,36.12
2023-04-25T02:36:56.816Z,36.30
2023-04-25T02:39:38.511Z,36.43
2023-04-25T02:43:09.176Z,36.42
2023-04-25T02:54:32.121Z,36.62
2023-04-25T03:01:04.291Z,36.15
2023-04-25T03:03:35.769Z,35.28
2023-04-25T03:06:11.835Z,34.94
2023-04-25T03:08:48.817Z,34.86
2023-04-25T03:16:12.741Z,35.22
2023-04-25T03:19:24.758Z,35.08
2023-04-25T03:22:08.952Z,35.15
2023-04-25T03:24:40.413Z,35.18
2023-04-25T03:28:01.148Z,34.81
2023-04-25T03:35:12.507Z,35.28
2023-04-25T03:38:04.450Z,34.77
2023-04-25T03:48:28.885Z,34.90
2023-04-25T04:04:33.400Z,34.53
2023-04-25T04:07:56.206Z,34.29
2023-04-25T04:10:42.864Z,33.97
2023-04-25T04:17:36.435Z,34.21
2023-04-25T04:20:19.977Z,33.95
2023-04-25T04:22:55.995Z,33.83
2023-04-25T04:25:31.706Z,34.06
2023-04-25T04:28:22.862Z,34.23
2023-04-25T04:31:15.065Z,33.95
2023-04-25T04:34:12.522Z,33.81
2023-04-25T04:40:34.050Z,34.04
2023-04-25T04:43:28.351Z,33.76
2023-04-25T04:46:43.966Z,33.76
2023-04-25T04:49:51.656Z,33.91
2023-04-25T04:53:08.512Z,34.14
2023-04-25T04:55:47.468Z,33.90
2023-04-25T04:58:41.385Z,33.88
2023-04-25T05:01:24.324Z,33.83
2023-04-25T05:04:10.042Z,33.92
2023-04-25T05:07:02.639Z,33.90
2023-04-25T05:14:08.001Z,34.22
2023-04-25T05:17:07.129Z,34.12
2023-04-25T05:20:59.724Z,34.14
2023-04-25T05:24:08.685Z,34.26
2023-04-25T05:27:22.939Z,34.27
2023-04-25T05:30:34.836Z,34.12
2023-04-25T05:36:30.362Z,33.90
2023-04-25T05:39:12.745Z,33.79
2023-04-25T05:42:04.375Z,33.90
2023-04-25T05:45:24.761Z,33.97
2023-04-25T05:48:27.201Z,34.30
2023-04-25T05:52:12.222Z,35.44
2023-04-25T05:55:49.309Z,34.78
2023-04-25T05:58:32.929Z,34.49
2023-04-25T06:01:08.527Z,34.21
2023-04-25T06:04:11.807Z,34.23
2023-04-25T06:06:53.043Z,33.99
2023-04-25T06:09:36.646Z,33.82
2023-04-25T06:12:15.692Z,33.79
2023-04-25T06:14:52.514Z,33.76
2023-04-25T06:17:27.100Z,33.82
2023-04-25T06:20:06.899Z,33.75
2023-04-25T06:22:51.797Z,33.84
2023-04-25T06:25:24.268Z,33.81
2023-04-25T06:28:03.266Z,33.71
2023-04-25T06:30:51.988Z,33.90
2023-04-25T06:33:33.120Z,33.88
2023-04-25T06:36:08.334Z,33.75
2023-04-25T06:39:12.228Z,33.92
2023-04-25T06:41:54.538Z,33.85
2023-04-25T06:44:56.886Z,33.96
2023-04-25T06:47:35.986Z,33.96
2023-04-25T06:50:11.835Z,33.79
2023-04-25T06:52:48.703Z,33.69
2023-04-25T06:55:25.284Z,33.63
2023-04-25T06:58:31.286Z,33.80
2023-04-25T07:01:26.678Z,33.69
2023-04-25T07:04:07.156Z,33.57
2023-04-25T07:06:47.257Z,33.57
2023-04-25T07:09:25.357Z,33.53
2023-04-25T07:12:12.679Z,33.53
2023-04-25T07:14:56.484Z,33.64
2023-04-25T07:21:45.636Z,33.71
2023-04-25T07:24:21.370Z,33.54
2023-04-25T07:27:05.763Z,33.54
2023-04-25T07:30:08.815Z,33.64
2023-04-25T07:32:42.957Z,33.60
2023-04-25T07:35:18.877Z,33.54
2023-04-25T07:37:52.836Z,33.33
2023-04-25T07:40:26.852Z,33.20
2023-04-25T07:43:05.600Z,33.14
2023-04-25T07:45:55.024Z,33.06
2023-04-25T07:48:28.716Z,33.00
2023-04-25T07:51:00.239Z,33.05
2023-04-25T07:53:42.617Z,33.01
2023-04-25T07:56:20.906Z,32.74
2023-04-25T07:58:52.410Z,32.66
2023-04-25T08:01:27.673Z,32.61
2023-04-25T08:04:05.439Z,32.59
2023-04-25T08:07:11.037Z,32.68
2023-04-25T08:10:01.403Z,32.84
2023-04-25T08:12:39.015Z,32.67
2023-04-25T08:15:24.457Z,32.56
2023-04-25T08:17:58.938Z,32.58
2023-04-25T08:20:56.845Z,32.73
2023-04-25T08:23:31.058Z,32.55
2023-04-25T08:26:23.405Z,32.70
2023-04-25T08:28:57.419Z,32.65
2023-04-25T08:31:33.677Z,32.61
2023-04-25T08:34:12.842Z,32.56
2023-04-25T08:36:55.758Z,32.54
2023-04-25T08:40:21.108Z,32.61
2023-04-25T08:43:30.821Z,32.72
2023-04-25T08:46:16.063Z,32.63
2023-04-25T08:49:05.002Z,32.66
2023-04-25T08:51:55.945Z,32.52
2023-04-25T08:57:25.142Z,32.63
2023-04-25T09:00:04.066Z,32.46
2023-04-25T09:02:38.052Z,32.40
2023-04-25T09:05:12.380Z,32.33
2023-04-25T09:08:15.990Z,32.29
2023-04-25T09:10:29.135Z,32.63
2023-04-25T09:11:28.089Z,32.63
2023-04-25T09:14:27.672Z,32.61
2023-04-25T09:17:12.604Z,32.26
2023-04-25T09:20:12.347Z,33.18
2023-04-25T09:22:48.030Z,32.26
2023-04-25T09:25:20.030Z,31.92
2023-04-25T09:27:56.927Z,31.83
2023-04-25T09:30:51.754Z,31.83
2023-04-25T09:33:42.455Z,31.95
2023-04-25T09:36:18.519Z,31.79
2023-04-25T09:39:21.612Z,31.84
2023-04-25T09:42:02.837Z,31.69
2023-04-25T09:44:35.878Z,31.52
2023-04-25T09:47:15.657Z,31.44
2023-04-25T09:49:50.896Z,31.41
2023-04-25T09:52:28.622Z,31.34
2023-04-25T09:55:24.596Z,31.37
2023-04-25T09:57:59.402Z,31.32
2023-04-25T10:00:36.088Z,31.25
2023-04-25T10:03:33.091Z,31.19
2023-04-25T10:06:56.787Z,31.40
2023-04-25T10:09:54.011Z,31.32
2023-04-25T10:12:29.316Z,31.27
2023-04-25T10:15:03.933Z,31.14
2023-04-25T10:17:53.165Z,31.05
2023-04-25T10:20:33.453Z,30.89
2023-04-25T10:23:21.725Z,30.86
2023-04-25T10:26:26.475Z,31.87
2023-04-25T10:29:12.022Z,31.17
2023-04-25T10:31:50.855Z,30.85
2023-04-25T10:34:21.135Z,30.63
2023-04-25T10:36:59.692Z,30.58
2023-04-25T10:39:38.873Z,30.52
2023-04-25T10:42:12.677Z,30.52
2023-04-25T10:45:19.424Z,30.74
2023-04-25T10:47:53.677Z,30.61
2023-04-25T10:50:43.368Z,30.63
2023-04-25T10:53:28.666Z,30.55
2023-04-25T10:56:01.370Z,30.53
2023-04-25T10:58:34.770Z,30.57
2023-04-25T11:01:08.078Z,30.65
2023-04-25T11:03:52.335Z,30.77
2023-04-25T11:06:36.669Z,30.74
2023-04-25T11:09:33.233Z,30.94
2023-04-25T11:12:16.869Z,31.61
2023-04-25T11:15:13.244Z,31.26
2023-04-25T11:17:50.600Z,31.34
2023-04-25T11:20:31.297Z,31.42
2023-04-25T11:26:01.477Z,31.93
2023-04-25T11:32:31.873Z,33.36
2023-04-25T11:35:17.002Z,32.76
2023-04-25T11:37:58.391Z,32.70
2023-04-25T11:40:41.033Z,32.63
2023-04-25T11:46:53.398Z,33.60
2023-04-25T11:49:37.414Z,33.16
2023-04-25T11:52:17.522Z,33.16
2023-04-25T11:54:48.119Z,33.20
2023-04-25T11:57:26.495Z,33.27
2023-04-25T11:59:56.716Z,33.44
2023-04-25T12:02:28.923Z,33.45
2023-04-25T12:08:26.819Z,33.74
2023-04-25T12:11:12.714Z,33.59
2023-04-25T12:14:20.306Z,33.61
2023-04-25T12:16:55.684Z,33.60
2023-04-25T12:20:25.208Z,33.75
2023-04-25T12:22:57.492Z,33.52
2023-04-25T12:26:35.906Z,33.60
2023-04-25T12:32:19.702Z,33.76
2023-04-25T12:34:53.077Z,33.69
2023-04-25T12:37:27.026Z,33.72
2023-04-25T12:39:59.678Z,33.81
2023-04-25T12:42:40.491Z,34.00
2023-04-25T12:45:19.136Z,33.99
2023-04-25T12:47:48.936Z,34.29
2023-04-25T12:50:22.052Z,34.69
2023-04-25T12:52:51.116Z,34.59
2023-04-25T12:55:20.263Z,34.59
2023-04-25T12:57:50.209Z,34.66
2023-04-25T13:00:32.808Z,34.67
2023-04-25T13:03:06.796Z,34.92
2023-04-25T13:05:37.920Z,35.00
2023-04-25T13:08:08.801Z,34.90
2023-04-25T13:11:04.222Z,35.30
2023-04-25T13:13:37.051Z,35.25
2023-04-25T13:16:07.263Z,35.29
2023-04-25T13:18:36.656Z,36.25
2023-04-25T13:21:06.364Z,35.78
2023-04-25T13:23:35.744Z,35.65
2023-04-25T13:26:05.191Z,35.59
2023-04-25T13:28:34.421Z,35.50
2023-04-25T13:31:11.756Z,35.47
2023-04-25T13:33:40.804Z,35.53
2023-04-25T13:36:10.462Z,35.57
2023-04-25T13:38:40.433Z,35.69
2023-04-25T13:41:12.716Z,35.75
2023-04-25T13:43:49.050Z,35.86
2023-04-25T13:46:40.839Z,35.77
2023-04-25T13:49:18.856Z,35.92
2023-04-25T13:51:50.848Z,35.92
2023-04-25T13:54:20.327Z,35.96
2023-04-25T13:56:51.439Z,35.93
2023-04-25T13:59:22.248Z,35.96
2023-04-25T14:01:50.842Z,35.82
2023-04-25T14:04:20.271Z,35.71
2023-04-25T14:06:49.591Z,35.79
2023-04-25T14:09:29.246Z,35.92
2023-04-25T14:12:00.193Z,36.02
2023-04-25T14:14:30.633Z,36.11
2023-04-25T14:17:00.033Z,36.16
2023-04-25T14:19:30.474Z,36.20
2023-04-25T14:22:00.324Z,36.18
2023-04-25T14:24:37.001Z,37.22
2023-04-25T14:27:06.573Z,37.52
2023-04-25T14:29:36.640Z,37.51
2023-04-25T14:32:07.888Z,37.52
2023-04-25T14:34:37.113Z,37.43
2023-04-25T14:37:08.744Z,37.49
2023-04-25T14:39:41.268Z,37.53
2023-04-25T14:42:15.612Z,37.48
2023-04-25T14:44:54.183Z,37.80
2023-04-25T14:47:24.051Z,37.73
2023-04-25T14:49:56.021Z,37.66
2023-04-25T14:52:24.985Z,37.58
2023-04-25T14:55:02.086Z,37.68
2023-04-25T14:57:36.606Z,37.23
2023-04-25T15:00:12.580Z,37.64
2023-04-25T15:02:47.583Z,37.62
2023-04-25T15:05:18.013Z,36.96
2023-04-25T15:07:49.590Z,37.10
2023-04-25T15:10:20.062Z,36.82
2023-04-25T15:12:49.638Z,37.01
2023-04-25T15:15:26.139Z,36.92
2023-04-25T15:17:59.090Z,36.86
2023-04-25T15:20:29.201Z,36.71
2023-04-25T15:23:01.049Z,36.63
2023-04-25T15:25:30.599Z,36.68
2023-04-25T15:27:59.983Z,36.70
2023-04-25T15:30:28.762Z,36.78
2023-04-25T15:33:00.669Z,36.93
2023-04-25T15:35:32.851Z,37.92
2023-04-25T15:38:02.592Z,37.34
2023-04-25T15:40:35.576Z,37.25
2023-04-25T15:43:05.085Z,37.31
2023-04-25T15:45:54.421Z,37.43
2023-04-25T15:48:36.021Z,37.44
2023-04-25T15:51:05.202Z,37.51
2023-04-25T15:53:34.892Z,37.40
2023-04-25T15:56:05.871Z,37.42
2023-04-25T15:58:34.843Z,37.57
2023-04-25T16:01:08.435Z,37.62
2023-04-25T16:03:38.882Z,37.75
2023-04-25T16:06:08.845Z,37.82
2023-04-25T16:08:41.132Z,37.57
2023-04-25T16:11:10.882Z,37.71
2023-04-25T16:13:43.797Z,37.61
2023-04-25T16:16:19.611Z,37.60
2023-04-25T16:18:51.934Z,37.75
2023-04-25T16:21:22.500Z,38.06
2023-04-25T16:23:56.871Z,38.20
2023-04-25T16:26:28.951Z,38.22
2023-04-25T16:28:58.445Z,38.22
2023-04-25T16:31:28.234Z,38.31
2023-04-25T16:33:58.965Z,38.45
2023-04-25T16:36:28.943Z,38.57
2023-04-25T16:38:58.390Z,38.73
2023-04-25T16:41:27.156Z,38.70
2023-04-25T16:43:56.797Z,38.58
2023-04-25T16:46:27.499Z,38.68
2023-04-25T16:48:56.846Z,38.82
2023-04-25T16:51:27.707Z,38.92
2023-04-25T16:53:57.214Z,39.08
2023-04-25T16:56:26.273Z,39.10
2023-04-25T16:58:56.098Z,39.10
2023-04-25T17:01:25.073Z,39.06
2023-04-25T17:03:57.850Z,38.92
2023-04-25T17:06:26.499Z,38.77
2023-04-25T17:08:55.820Z,38.62
2023-04-25T17:11:25.130Z,38.53
2023-04-25T17:13:56.552Z,38.44
2023-04-25T17:16:37.405Z,38.68
2023-04-25T17:19:08.189Z,38.67
2023-04-25T17:21:38.777Z,38.67
2023-04-25T17:24:12.671Z,38.74
2023-04-25T17:26:42.753Z,38.91
2023-04-25T17:29:20.925Z,39.01
2023-04-25T17:31:54.771Z,39.21
2023-04-25T17:34:32.329Z,39.72
2023-04-25T17:37:04.300Z,40.32
2023-04-25T17:40:18.879Z,40.70
2023-04-25T17:42:48.882Z,39.96
2023-04-25T17:45:29.359Z,40.18
2023-04-25T17:48:13.420Z,39.79
2023-04-25T17:50:47.352Z,39.79
2023-04-25T17:53:19.032Z,39.78
2023-04-25T17:55:51.918Z,39.89
2023-04-25T18:01:07.228Z,39.85
2023-04-25T18:03:38.682Z,39.78
2023-04-25T18:06:38.807Z,40.21
2023-04-25T18:09:16.961Z,39.51
2023-04-25T18:11:51.309Z,39.24
2023-04-25T18:14:24.614Z,39.29
2023-04-25T18:16:56.087Z,39.23
2023-04-25T18:19:26.450Z,39.14
2023-04-25T18:21:57.561Z,39.27
2023-04-25T18:24:36.317Z,39.42
2023-04-25T18:27:12.212Z,39.39
2023-04-25T18:29:47.214Z,39.52
2023-04-25T18:32:18.193Z,39.43
2023-04-25T18:34:52.209Z,39.52
2023-04-25T18:37:24.817Z,39.55
2023-04-25T18:39:54.666Z,39.43
2023-04-25T18:42:23.762Z,39.40
2023-04-25T18:44:53.000Z,39.26
2023-04-25T18:47:23.435Z,39.20
2023-04-25T18:49:58.227Z,39.26
2023-04-25T18:52:27.696Z,40.75
2023-04-25T18:55:00.608Z,39.96
2023-04-25T18:57:33.495Z,39.54
2023-04-25T19:00:07.181Z,39.30
2023-04-25T19:02:38.920Z,39.27
2023-04-25T19:05:09.103Z,39.28
2023-04-25T19:07:41.219Z,39.50
2023-04-25T19:10:10.989Z,39.46
2023-04-25T19:12:44.973Z,39.47
2023-04-25T19:15:16.002Z,39.63
2023-04-25T19:17:48.050Z,39.75
2023-04-25T19:20:18.715Z,39.80
2023-04-25T19:22:49.298Z,40.30
2023-04-25T19:25:18.946Z,39.68
2023-04-25T19:27:48.248Z,39.68
2023-04-25T19:30:21.452Z,39.70
2023-04-25T19:32:51.052Z,39.76
2023-04-25T19:35:20.289Z,39.99
2023-04-25T19:37:49.890Z,39.71
2023-04-25T19:40:23.827Z,39.67
2023-04-25T19:42:53.158Z,39.65
2023-04-25T19:45:24.368Z,39.58
2023-04-25T19:47:57.942Z,39.65
2023-04-25T19:50:28.393Z,39.68
2023-04-25T19:52:58.777Z,39.68
2023-04-25T19:55:38.843Z,39.42
2023-04-25T19:58:11.049Z,39.32
2023-04-25T20:00:40.653Z,39.28
2023-04-25T20:03:12.226Z,39.27
2023-04-25T20:05:41.595Z,39.27
2023-04-25T20:08:12.311Z,39.29
2023-04-25T20:10:41.647Z,39.30
2023-04-25T20:13:13.385Z,39.34
2023-04-25T20:15:52.199Z,39.37
2023-04-25T20:18:24.940Z,39.36
2023-04-25T20:20:55.800Z,39.58
2023-04-25T20:23:26.198Z,39.47
2023-04-25T20:25:54.850Z,39.33
2023-04-25T20:28:25.006Z,39.26
2023-04-25T20:30:54.524Z,39.27
2023-04-25T20:33:24.775Z,39.42
2023-04-25T20:35:57.179Z,39.44
2023-04-25T20:38:28.051Z,39.44
2023-04-25T20:40:57.152Z,39.49
2023-04-25T20:43:28.018Z,39.48
2023-04-25T20:46:07.346Z,39.60
2023-04-25T20:48:36.911Z,39.46
2023-04-25T20:51:08.816Z,39.41
2023-04-25T20:53:38.796Z,39.43
2023-04-25T20:56:08.753Z,39.56
2023-04-25T20:58:38.723Z,39.68
2023-04-25T21:01:10.414Z,39.73
2023-04-25T21:03:39.402Z,39.71
2023-04-25T21:06:09.468Z,39.66
2023-04-25T21:08:48.137Z,39.66
2023-04-25T21:11:18.664Z,39.69
2023-04-25T21:13:48.543Z,39.59
2023-04-25T21:16:18.634Z,39.63
2023-04-25T21:18:51.375Z,39.63
2023-04-25T21:21:21.009Z,39.72
2023-04-25T21:23:50.955Z,39.72
2023-04-25T21:26:24.577Z,39.72
2023-04-25T21:28:55.017Z,39.86
2023-04-25T21:31:28.216Z,39.80
2023-04-25T21:33:58.803Z,39.85
2023-04-25T21:36:35.596Z,39.70
2023-04-25T21:39:11.705Z,39.73
2023-04-25T21:41:53.797Z,39.68
2023-04-25T21:44:27.113Z,39.51
2023-04-25T21:46:58.539Z,39.53
2023-04-25T21:49:30.559Z,39.47
2023-04-25T21:52:00.944Z,39.52
2023-04-25T21:54:30.825Z,39.53
2023-04-25T21:56:59.766Z,39.59
2023-04-25T21:59:29.312Z,39.55
2023-04-25T22:02:01.163Z,39.76
2023-04-25T22:04:32.129Z,39.79
2023-04-25T22:07:01.607Z,40.01
2023-04-25T22:09:38.441Z,39.73
2023-04-25T22:12:18.931Z,39.84
2023-04-25T22:14:51.313Z,39.70
2023-04-25T22:17:39.629Z,39.72
2023-04-25T22:20:17.717Z,39.66
2023-04-25T22:23:01.909Z,39.75
2023-04-25T22:25:33.184Z,39.66
2023-04-25T22:28:04.670Z,39.67
2023-04-25T22:30:33.622Z,39.63
2023-04-25T22:33:09.464Z,39.67
2023-04-25T22:35:41.430Z,39.66
2023-04-25T22:39:19.447Z,39.92
2023-04-25T22:41:51.818Z,39.73
2023-04-25T22:44:25.287Z,39.49
2023-04-25T22:46:57.272Z,39.56
2023-04-25T22:49:29.829Z,39.40
2023-04-25T22:52:01.380Z,39.36
2023-04-25T22:54:33.447Z,39.37
2023-04-25T22:57:09.326Z,39.35
2023-04-25T22:59:41.577Z,39.44
2023-04-25T23:02:11.790Z,39.51
2023-04-25T23:04:45.018Z,39.43
2023-04-25T23:07:15.663Z,39.34
2023-04-25T23:09:46.678Z,39.29
2023-04-25T23:12:26.059Z,39.34
2023-04-25T23:14:55.694Z,39.37
2023-04-25T23:17:25.447Z,39.31
2023-04-25T23:19:57.243Z,39.30
2023-04-25T23:22:39.743Z,39.40
2023-04-25T23:25:14.728Z,39.47
2023-04-25T23:27:51.504Z,39.53
2023-04-25T23:30:53.649Z,39.80
2023-04-25T23:33:31.253Z,39.43
2023-04-25T23:36:05.664Z,39.35
2023-04-25T23:38:37.616Z,39.28
2023-04-25T23:41:21.168Z,39.23
2023-04-25T23:44:47.080Z,39.43
2023-04-25T23:47:28.928Z,39.36
2023-04-25T23:50:31.792Z,39.30
2023-04-25T23:53:05.532Z,39.06
2023-04-25T23:55:40.927Z,38.85
2023-04-25T23:58:21.483Z,38.68
